sensor_id;sensor_type;location;lat;lon;timestamp;temperature;humidity
70076;DHT22;63241;51.056;3.698;2023-05-07T00:01:03;17.70;99.90
70076;DHT22;63241;51.056;3.698;2023-05-07T00:03:33;17.70;99.90
70076;DHT22;63241;51.056;3.698;2023-05-07T00:06:00;17.70;99.90
70076;DHT22;63241;51.056;3.698;2023-05-07T00:08:28;17.70;99.60
70076;DHT22;63241;51.056;3.698;2023-05-07T00:10:56;17.80;99.50
70076;DHT22;63241;51.056;3.698;2023-05-07T00:13:23;17.70;99.70
70076;DHT22;63241;51.056;3.698;2023-05-07T00:15:51;17.70;99.60
70076;DHT22;63241;51.056;3.698;2023-05-07T00:18:18;17.70;99.70
70076;DHT22;63241;51.056;3.698;2023-05-07T00:20:48;17.70;99.70
70076;DHT22;63241;51.056;3.698;2023-05-07T00:23:15;17.60;99.90
70076;DHT22;63241;51.056;3.698;2023-05-07T00:25:43;17.60;99.90
70076;DHT22;63241;51.056;3.698;2023-05-07T00:28:11;17.60;99.90
70076;DHT22;63241;51.056;3.698;2023-05-07T00:30:38;17.70;99.90
70076;DHT22;63241;51.056;3.698;2023-05-07T00:33:06;17.60;99.90
70076;DHT22;63241;51.056;3.698;2023-05-07T00:35:33;17.60;99.90
70076;DHT22;63241;51.056;3.698;2023-05-07T00:38:01;17.50;99.90
70076;DHT22;63241;51.056;3.698;2023-05-07T00:40:29;17.50;99.90
70076;DHT22;63241;51.056;3.698;2023-05-07T00:42:56;17.50;99.90
70076;DHT22;63241;51.056;3.698;2023-05-07T00:45:27;17.50;99.90
70076;DHT22;63241;51.056;3.698;2023-05-07T00:48:00;17.50;99.90
70076;DHT22;63241;51.056;3.698;2023-05-07T00:53:21;17.50;99.90
70076;DHT22;63241;51.056;3.698;2023-05-07T00:55:49;17.50;99.90
70076;DHT22;63241;51.056;3.698;2023-05-07T00:58:17;17.50;99.90
70076;DHT22;63241;51.056;3.698;2023-05-07T01:00:45;17.50;99.90
70076;DHT22;63241;51.056;3.698;2023-05-07T01:03:13;17.50;99.90
70076;DHT22;63241;51.056;3.698;2023-05-07T01:05:41;17.50;99.90
70076;DHT22;63241;51.056;3.698;2023-05-07T01:08:09;17.50;99.90
70076;DHT22;63241;51.056;3.698;2023-05-07T01:10:37;17.40;99.90
70076;DHT22;63241;51.056;3.698;2023-05-07T01:13:06;17.40;99.90
70076;DHT22;63241;51.056;3.698;2023-05-07T01:15:34;17.30;99.90
70076;DHT22;63241;51.056;3.698;2023-05-07T01:18:02;17.30;99.90
70076;DHT22;63241;51.056;3.698;2023-05-07T01:20:30;17.30;99.90
70076;DHT22;63241;51.056;3.698;2023-05-07T01:22:58;17.30;99.90
70076;DHT22;63241;51.056;3.698;2023-05-07T01:25:27;17.30;99.90
70076;DHT22;63241;51.056;3.698;2023-05-07T01:27:55;17.10;99.90
70076;DHT22;63241;51.056;3.698;2023-05-07T01:30:23;17.00;99.90
70076;DHT22;63241;51.056;3.698;2023-05-07T01:33:00;17.00;99.90
70076;DHT22;63241;51.056;3.698;2023-05-07T01:35:34;17.00;99.90
70076;DHT22;63241;51.056;3.698;2023-05-07T01:38:02;17.00;99.90
70076;DHT22;63241;51.056;3.698;2023-05-07T01:40:32;17.10;99.90
70076;DHT22;63241;51.056;3.698;2023-05-07T01:43:02;17.00;99.90
70076;DHT22;63241;51.056;3.698;2023-05-07T01:45:30;17.00;99.90
70076;DHT22;63241;51.056;3.698;2023-05-07T01:47:59;17.00;99.90
70076;DHT22;63241;51.056;3.698;2023-05-07T01:50:27;17.00;99.90
70076;DHT22;63241;51.056;3.698;2023-05-07T01:52:55;17.00;99.90
70076;DHT22;63241;51.056;3.698;2023-05-07T01:55:23;17.00;99.90
70076;DHT22;63241;51.056;3.698;2023-05-07T01:57:51;17.00;99.90
70076;DHT22;63241;51.056;3.698;2023-05-07T02:00:19;17.00;99.90
70076;DHT22;63241;51.056;3.698;2023-05-07T02:02:46;16.90;99.90
70076;DHT22;63241;51.056;3.698;2023-05-07T02:05:14;16.90;99.90
70076;DHT22;63241;51.056;3.698;2023-05-07T02:07:42;17.00;99.90
70076;DHT22;63241;51.056;3.698;2023-05-07T02:10:10;17.00;99.90
70076;DHT22;63241;51.056;3.698;2023-05-07T02:12:37;16.90;99.90
70076;DHT22;63241;51.056;3.698;2023-05-07T02:15:05;16.90;99.90
70076;DHT22;63241;51.056;3.698;2023-05-07T02:17:33;16.80;99.90
70076;DHT22;63241;51.056;3.698;2023-05-07T02:20:01;16.80;99.90
70076;DHT22;63241;51.056;3.698;2023-05-07T02:22:30;16.90;99.90
70076;DHT22;63241;51.056;3.698;2023-05-07T02:24:58;16.90;99.90
70076;DHT22;63241;51.056;3.698;2023-05-07T02:27:25;16.80;99.90
70076;DHT22;63241;51.056;3.698;2023-05-07T02:29:53;16.80;99.90
70076;DHT22;63241;51.056;3.698;2023-05-07T02:32:21;16.70;99.90
70076;DHT22;63241;51.056;3.698;2023-05-07T02:34:50;16.60;99.90
70076;DHT22;63241;51.056;3.698;2023-05-07T02:37:18;16.60;99.90
70076;DHT22;63241;51.056;3.698;2023-05-07T02:39:46;16.60;99.90
70076;DHT22;63241;51.056;3.698;2023-05-07T02:42:51;16.60;99.90
70076;DHT22;63241;51.056;3.698;2023-05-07T02:45:19;16.60;99.90
70076;DHT22;63241;51.056;3.698;2023-05-07T02:47:47;16.50;99.90
70076;DHT22;63241;51.056;3.698;2023-05-07T02:50:14;16.50;99.90
70076;DHT22;63241;51.056;3.698;2023-05-07T02:52:42;16.50;99.90
70076;DHT22;63241;51.056;3.698;2023-05-07T02:55:10;16.40;99.90
70076;DHT22;63241;51.056;3.698;2023-05-07T02:57:38;16.40;99.90
70076;DHT22;63241;51.056;3.698;2023-05-07T03:00:13;16.40;99.90
70076;DHT22;63241;51.056;3.698;2023-05-07T03:02:42;16.40;99.90
70076;DHT22;63241;51.056;3.698;2023-05-07T03:05:10;16.50;99.90
70076;DHT22;63241;51.056;3.698;2023-05-07T03:07:38;16.50;99.90
70076;DHT22;63241;51.056;3.698;2023-05-07T03:10:06;16.50;99.90
70076;DHT22;63241;51.056;3.698;2023-05-07T03:12:34;16.60;99.90
70076;DHT22;63241;51.056;3.698;2023-05-07T03:15:02;16.50;99.90
70076;DHT22;63241;51.056;3.698;2023-05-07T03:17:30;16.60;99.90
70076;DHT22;63241;51.056;3.698;2023-05-07T03:19:58;16.60;99.90
70076;DHT22;63241;51.056;3.698;2023-05-07T03:22:25;16.70;99.90
70076;DHT22;63241;51.056;3.698;2023-05-07T03:24:53;16.70;99.90
70076;DHT22;63241;51.056;3.698;2023-05-07T03:27:21;16.70;99.90
70076;DHT22;63241;51.056;3.698;2023-05-07T03:29:49;16.70;99.90
70076;DHT22;63241;51.056;3.698;2023-05-07T03:32:16;16.70;99.90
70076;DHT22;63241;51.056;3.698;2023-05-07T03:34:44;16.80;99.90
70076;DHT22;63241;51.056;3.698;2023-05-07T03:37:12;16.80;99.90
70076;DHT22;63241;51.056;3.698;2023-05-07T03:39:40;16.80;99.90
70076;DHT22;63241;51.056;3.698;2023-05-07T03:42:07;16.90;99.90
70076;DHT22;63241;51.056;3.698;2023-05-07T03:44:35;16.80;99.90
70076;DHT22;63241;51.056;3.698;2023-05-07T03:47:03;16.80;99.90
70076;DHT22;63241;51.056;3.698;2023-05-07T03:49:31;16.90;99.90
70076;DHT22;63241;51.056;3.698;2023-05-07T03:51:59;16.90;99.90
70076;DHT22;63241;51.056;3.698;2023-05-07T03:54:27;16.90;99.90
70076;DHT22;63241;51.056;3.698;2023-05-07T03:56:54;17.00;99.90
70076;DHT22;63241;51.056;3.698;2023-05-07T03:59:22;17.00;99.90
70076;DHT22;63241;51.056;3.698;2023-05-07T04:01:50;17.10;99.90
70076;DHT22;63241;51.056;3.698;2023-05-07T04:04:18;17.00;99.90
70076;DHT22;63241;51.056;3.698;2023-05-07T04:06:46;17.10;99.90
70076;DHT22;63241;51.056;3.698;2023-05-07T04:09:14;17.00;99.90
70076;DHT22;63241;51.056;3.698;2023-05-07T04:11:42;17.10;99.90
70076;DHT22;63241;51.056;3.698;2023-05-07T04:14:10;17.10;99.90
70076;DHT22;63241;51.056;3.698;2023-05-07T04:16:38;17.20;99.90
70076;DHT22;63241;51.056;3.698;2023-05-07T04:19:06;17.20;99.90
70076;DHT22;63241;51.056;3.698;2023-05-07T04:21:33;17.20;99.90
70076;DHT22;63241;51.056;3.698;2023-05-07T04:24:03;17.20;99.90
70076;DHT22;63241;51.056;3.698;2023-05-07T04:26:30;17.20;99.90
70076;DHT22;63241;51.056;3.698;2023-05-07T04:28:58;17.20;99.90
70076;DHT22;63241;51.056;3.698;2023-05-07T04:31:26;17.20;99.90
70076;DHT22;63241;51.056;3.698;2023-05-07T04:33:54;17.20;99.90
70076;DHT22;63241;51.056;3.698;2023-05-07T04:36:21;17.20;99.90
70076;DHT22;63241;51.056;3.698;2023-05-07T04:38:49;17.20;99.90
70076;DHT22;63241;51.056;3.698;2023-05-07T04:41:17;17.20;99.90
70076;DHT22;63241;51.056;3.698;2023-05-07T04:43:45;17.20;99.90
70076;DHT22;63241;51.056;3.698;2023-05-07T04:46:12;17.20;99.90
70076;DHT22;63241;51.056;3.698;2023-05-07T04:48:40;17.20;99.90
70076;DHT22;63241;51.056;3.698;2023-05-07T04:51:08;17.20;99.90
70076;DHT22;63241;51.056;3.698;2023-05-07T04:53:35;17.20;99.90
70076;DHT22;63241;51.056;3.698;2023-05-07T04:56:03;17.20;99.90
70076;DHT22;63241;51.056;3.698;2023-05-07T04:58:31;17.20;99.90
70076;DHT22;63241;51.056;3.698;2023-05-07T05:00:59;17.20;99.90
70076;DHT22;63241;51.056;3.698;2023-05-07T05:03:27;17.20;99.90
70076;DHT22;63241;51.056;3.698;2023-05-07T05:05:55;17.20;99.90
70076;DHT22;63241;51.056;3.698;2023-05-07T05:08:24;17.20;99.90
70076;DHT22;63241;51.056;3.698;2023-05-07T05:10:52;17.20;99.90
70076;DHT22;63241;51.056;3.698;2023-05-07T05:13:20;17.20;99.90
70076;DHT22;63241;51.056;3.698;2023-05-07T05:15:47;17.00;99.90
70076;DHT22;63241;51.056;3.698;2023-05-07T05:18:15;16.90;99.90
70076;DHT22;63241;51.056;3.698;2023-05-07T05:20:43;16.80;99.90
70076;DHT22;63241;51.056;3.698;2023-05-07T05:23:10;16.90;99.90
70076;DHT22;63241;51.056;3.698;2023-05-07T05:25:38;16.80;99.90
70076;DHT22;63241;51.056;3.698;2023-05-07T05:28:06;16.80;99.90
70076;DHT22;63241;51.056;3.698;2023-05-07T05:30:34;16.90;99.90
70076;DHT22;63241;51.056;3.698;2023-05-07T05:33:02;17.00;99.90
70076;DHT22;63241;51.056;3.698;2023-05-07T05:35:30;17.00;99.90
70076;DHT22;63241;51.056;3.698;2023-05-07T05:37:58;17.00;99.90
70076;DHT22;63241;51.056;3.698;2023-05-07T05:40:25;17.00;99.90
70076;DHT22;63241;51.056;3.698;2023-05-07T05:42:53;17.10;99.90
70076;DHT22;63241;51.056;3.698;2023-05-07T05:45:21;17.10;99.90
70076;DHT22;63241;51.056;3.698;2023-05-07T05:47:48;17.10;99.90
70076;DHT22;63241;51.056;3.698;2023-05-07T05:50:16;17.10;99.90
70076;DHT22;63241;51.056;3.698;2023-05-07T05:52:44;17.10;99.90
70076;DHT22;63241;51.056;3.698;2023-05-07T05:55:11;17.10;99.90
70076;DHT22;63241;51.056;3.698;2023-05-07T05:57:39;17.10;99.90
70076;DHT22;63241;51.056;3.698;2023-05-07T06:00:08;17.10;99.90
70076;DHT22;63241;51.056;3.698;2023-05-07T06:02:36;17.00;99.90
70076;DHT22;63241;51.056;3.698;2023-05-07T06:05:04;16.80;99.90
70076;DHT22;63241;51.056;3.698;2023-05-07T06:07:32;16.80;99.90
70076;DHT22;63241;51.056;3.698;2023-05-07T06:10:02;16.70;99.90
70076;DHT22;63241;51.056;3.698;2023-05-07T06:12:30;16.60;99.90
70076;DHT22;63241;51.056;3.698;2023-05-07T06:14:57;16.60;99.90
70076;DHT22;63241;51.056;3.698;2023-05-07T06:17:25;16.50;99.90
70076;DHT22;63241;51.056;3.698;2023-05-07T06:19:53;16.50;99.90
70076;DHT22;63241;51.056;3.698;2023-05-07T06:22:21;16.40;99.90
70076;DHT22;63241;51.056;3.698;2023-05-07T06:24:48;16.40;99.90
70076;DHT22;63241;51.056;3.698;2023-05-07T06:27:16;16.30;99.90
70076;DHT22;63241;51.056;3.698;2023-05-07T06:29:44;16.30;99.90
70076;DHT22;63241;51.056;3.698;2023-05-07T06:32:13;16.30;99.90
70076;DHT22;63241;51.056;3.698;2023-05-07T06:34:41;16.30;99.90
70076;DHT22;63241;51.056;3.698;2023-05-07T06:37:09;16.30;99.90
70076;DHT22;63241;51.056;3.698;2023-05-07T06:39:36;16.40;99.90
70076;DHT22;63241;51.056;3.698;2023-05-07T06:42:04;16.40;99.90
70076;DHT22;63241;51.056;3.698;2023-05-07T06:44:32;16.40;99.90
70076;DHT22;63241;51.056;3.698;2023-05-07T06:47:00;16.40;99.90
70076;DHT22;63241;51.056;3.698;2023-05-07T06:49:28;16.40;99.90
70076;DHT22;63241;51.056;3.698;2023-05-07T06:51:55;16.50;99.90
70076;DHT22;63241;51.056;3.698;2023-05-07T06:54:23;16.50;99.90
70076;DHT22;63241;51.056;3.698;2023-05-07T06:56:51;16.50;99.90
70076;DHT22;63241;51.056;3.698;2023-05-07T06:59:18;16.50;99.90
70076;DHT22;63241;51.056;3.698;2023-05-07T07:01:46;16.50;99.90
70076;DHT22;63241;51.056;3.698;2023-05-07T07:04:14;16.50;99.90
70076;DHT22;63241;51.056;3.698;2023-05-07T07:06:41;16.50;99.90
70076;DHT22;63241;51.056;3.698;2023-05-07T07:09:09;16.60;99.90
70076;DHT22;63241;51.056;3.698;2023-05-07T07:11:37;16.70;99.90
70076;DHT22;63241;51.056;3.698;2023-05-07T07:14:05;16.70;99.90
70076;DHT22;63241;51.056;3.698;2023-05-07T07:16:33;16.80;99.90
70076;DHT22;63241;51.056;3.698;2023-05-07T07:19:01;16.90;99.90
70076;DHT22;63241;51.056;3.698;2023-05-07T07:21:29;17.00;99.90
70076;DHT22;63241;51.056;3.698;2023-05-07T07:23:57;17.00;99.90
70076;DHT22;63241;51.056;3.698;2023-05-07T07:26:24;17.10;99.90
70076;DHT22;63241;51.056;3.698;2023-05-07T07:28:52;17.10;99.90
70076;DHT22;63241;51.056;3.698;2023-05-07T07:31:20;17.10;99.90
70076;DHT22;63241;51.056;3.698;2023-05-07T07:33:47;17.10;99.90
70076;DHT22;63241;51.056;3.698;2023-05-07T07:36:16;17.20;99.90
70076;DHT22;63241;51.056;3.698;2023-05-07T07:38:44;17.30;99.90
70076;DHT22;63241;51.056;3.698;2023-05-07T07:41:12;17.30;99.90
70076;DHT22;63241;51.056;3.698;2023-05-07T07:43:39;17.30;99.90
70076;DHT22;63241;51.056;3.698;2023-05-07T07:46:07;17.30;99.90
70076;DHT22;63241;51.056;3.698;2023-05-07T07:48:35;17.40;99.90
70076;DHT22;63241;51.056;3.698;2023-05-07T07:51:02;17.40;99.90
70076;DHT22;63241;51.056;3.698;2023-05-07T07:53:30;17.30;99.90
70076;DHT22;63241;51.056;3.698;2023-05-07T07:55:58;17.30;99.90
70076;DHT22;63241;51.056;3.698;2023-05-07T07:58:25;17.30;99.90
70076;DHT22;63241;51.056;3.698;2023-05-07T08:00:53;17.30;99.90
70076;DHT22;63241;51.056;3.698;2023-05-07T08:03:22;17.30;99.90
70076;DHT22;63241;51.056;3.698;2023-05-07T08:05:50;17.20;99.90
70076;DHT22;63241;51.056;3.698;2023-05-07T08:08:17;17.20;99.90
70076;DHT22;63241;51.056;3.698;2023-05-07T08:10:45;17.10;99.90
70076;DHT22;63241;51.056;3.698;2023-05-07T08:13:15;17.10;99.90
70076;DHT22;63241;51.056;3.698;2023-05-07T08:15:42;17.10;99.90
70076;DHT22;63241;51.056;3.698;2023-05-07T08:18:10;17.10;99.90
70076;DHT22;63241;51.056;3.698;2023-05-07T08:20:37;17.20;99.90
70076;DHT22;63241;51.056;3.698;2023-05-07T08:23:06;17.20;99.90
70076;DHT22;63241;51.056;3.698;2023-05-07T08:25:34;17.10;99.90
70076;DHT22;63241;51.056;3.698;2023-05-07T08:28:02;17.20;99.90
70076;DHT22;63241;51.056;3.698;2023-05-07T08:30:29;17.30;99.90
70076;DHT22;63241;51.056;3.698;2023-05-07T08:32:57;17.40;99.90
70076;DHT22;63241;51.056;3.698;2023-05-07T08:35:25;17.40;99.90
70076;DHT22;63241;51.056;3.698;2023-05-07T08:37:53;17.50;99.90
70076;DHT22;63241;51.056;3.698;2023-05-07T08:40:24;17.50;99.90
70076;DHT22;63241;51.056;3.698;2023-05-07T08:42:53;17.60;99.90
70076;DHT22;63241;51.056;3.698;2023-05-07T08:45:21;17.70;99.90
70076;DHT22;63241;51.056;3.698;2023-05-07T08:47:51;17.80;99.90
70076;DHT22;63241;51.056;3.698;2023-05-07T08:50:24;17.90;99.90
70076;DHT22;63241;51.056;3.698;2023-05-07T08:52:52;18.00;99.90
70076;DHT22;63241;51.056;3.698;2023-05-07T08:55:20;18.10;99.90
70076;DHT22;63241;51.056;3.698;2023-05-07T08:57:48;18.30;99.90
70076;DHT22;63241;51.056;3.698;2023-05-07T09:00:16;18.50;99.90
70076;DHT22;63241;51.056;3.698;2023-05-07T09:02:44;18.50;99.90
70076;DHT22;63241;51.056;3.698;2023-05-07T09:05:12;18.70;99.90
70076;DHT22;63241;51.056;3.698;2023-05-07T09:07:40;18.70;99.90
70076;DHT22;63241;51.056;3.698;2023-05-07T09:10:08;18.80;99.90
70076;DHT22;63241;51.056;3.698;2023-05-07T09:12:35;19.00;99.90
70076;DHT22;63241;51.056;3.698;2023-05-07T09:15:03;19.10;99.90
70076;DHT22;63241;51.056;3.698;2023-05-07T09:17:31;19.10;99.90
70076;DHT22;63241;51.056;3.698;2023-05-07T09:20:03;19.40;99.90
70076;DHT22;63241;51.056;3.698;2023-05-07T09:22:33;19.60;99.90
70076;DHT22;63241;51.056;3.698;2023-05-07T09:25:01;19.60;99.90
70076;DHT22;63241;51.056;3.698;2023-05-07T09:27:29;19.70;99.90
70076;DHT22;63241;51.056;3.698;2023-05-07T09:29:57;19.80;99.90
70076;DHT22;63241;51.056;3.698;2023-05-07T09:32:25;20.00;99.90
70076;DHT22;63241;51.056;3.698;2023-05-07T09:34:54;20.30;99.90
70076;DHT22;63241;51.056;3.698;2023-05-07T09:37:21;20.50;99.90
70076;DHT22;63241;51.056;3.698;2023-05-07T09:39:49;20.70;99.90
70076;DHT22;63241;51.056;3.698;2023-05-07T09:42:22;20.80;99.90
70076;DHT22;63241;51.056;3.698;2023-05-07T09:44:51;20.80;99.90
70076;DHT22;63241;51.056;3.698;2023-05-07T09:47:20;20.90;99.90
70076;DHT22;63241;51.056;3.698;2023-05-07T09:49:48;21.10;99.90
70076;DHT22;63241;51.056;3.698;2023-05-07T09:52:17;21.20;99.90
70076;DHT22;63241;51.056;3.698;2023-05-07T09:54:45;21.40;99.90
70076;DHT22;63241;51.056;3.698;2023-05-07T09:57:15;21.50;99.90
70076;DHT22;63241;51.056;3.698;2023-05-07T09:59:43;21.60;99.90
70076;DHT22;63241;51.056;3.698;2023-05-07T10:02:14;21.60;99.90
70076;DHT22;63241;51.056;3.698;2023-05-07T10:04:42;21.80;99.90
70076;DHT22;63241;51.056;3.698;2023-05-07T10:07:10;22.10;99.90
70076;DHT22;63241;51.056;3.698;2023-05-07T10:09:38;21.80;99.90
70076;DHT22;63241;51.056;3.698;2023-05-07T10:12:07;21.90;99.90
70076;DHT22;63241;51.056;3.698;2023-05-07T10:14:36;22.20;99.90
70076;DHT22;63241;51.056;3.698;2023-05-07T10:17:04;22.10;99.90
70076;DHT22;63241;51.056;3.698;2023-05-07T10:19:33;21.80;99.90
70076;DHT22;63241;51.056;3.698;2023-05-07T10:22:05;21.90;99.90
70076;DHT22;63241;51.056;3.698;2023-05-07T10:24:33;21.80;99.90
70076;DHT22;63241;51.056;3.698;2023-05-07T10:27:11;22.10;99.90
70076;DHT22;63241;51.056;3.698;2023-05-07T10:32:39;23.00;99.90
70076;DHT22;63241;51.056;3.698;2023-05-07T10:53:41;24.70;98.90
70076;DHT22;63241;51.056;3.698;2023-05-07T11:01:54;24.30;97.40
70076;DHT22;63241;51.056;3.698;2023-05-07T11:04:25;24.10;95.40
70076;DHT22;63241;51.056;3.698;2023-05-07T11:07:29;24.10;97.00
70076;DHT22;63241;51.056;3.698;2023-05-07T11:09:59;24.00;96.00
70076;DHT22;63241;51.056;3.698;2023-05-07T11:33:40;25.10;91.00
70076;DHT22;63241;51.056;3.698;2023-05-07T11:36:08;24.80;91.60
70076;DHT22;63241;51.056;3.698;2023-05-07T11:38:37;24.50;91.90
70076;DHT22;63241;51.056;3.698;2023-05-07T11:41:05;24.60;92.00
70076;DHT22;63241;51.056;3.698;2023-05-07T11:43:33;24.70;92.10
70076;DHT22;63241;51.056;3.698;2023-05-07T11:46:07;24.80;91.20
70076;DHT22;63241;51.056;3.698;2023-05-07T13:42:30;30.20;50.50
70076;DHT22;63241;51.056;3.698;2023-05-07T13:44:58;29.10;52.50
70076;DHT22;63241;51.056;3.698;2023-05-07T13:47:55;28.40;55.70
70076;DHT22;63241;51.056;3.698;2023-05-07T13:50:52;28.50;55.70
70076;DHT22;63241;51.056;3.698;2023-05-07T13:53:20;28.10;55.40
70076;DHT22;63241;51.056;3.698;2023-05-07T13:55:47;27.80;56.40
70076;DHT22;63241;51.056;3.698;2023-05-07T14:01:12;27.30;57.30
70076;DHT22;63241;51.056;3.698;2023-05-07T14:03:55;26.70;59.30
70076;DHT22;63241;51.056;3.698;2023-05-07T14:09:25;26.00;60.70
70076;DHT22;63241;51.056;3.698;2023-05-07T14:11:52;25.50;62.60
70076;DHT22;63241;51.056;3.698;2023-05-07T14:17:13;24.90;66.50
70076;DHT22;63241;51.056;3.698;2023-05-07T14:19:42;24.50;68.30
70076;DHT22;63241;51.056;3.698;2023-05-07T14:22:10;24.30;71.80
70076;DHT22;63241;51.056;3.698;2023-05-07T14:24:38;24.00;74.70
70076;DHT22;63241;51.056;3.698;2023-05-07T14:27:12;23.50;78.80
70076;DHT22;63241;51.056;3.698;2023-05-07T14:32:44;22.70;93.90
70076;DHT22;63241;51.056;3.698;2023-05-07T14:35:12;22.20;99.90
70076;DHT22;63241;51.056;3.698;2023-05-07T14:37:40;22.00;99.90
70076;DHT22;63241;51.056;3.698;2023-05-07T14:40:12;21.80;99.90
70076;DHT22;63241;51.056;3.698;2023-05-07T14:42:41;21.60;99.90
70076;DHT22;63241;51.056;3.698;2023-05-07T14:45:09;21.40;99.90
70076;DHT22;63241;51.056;3.698;2023-05-07T14:47:37;21.20;99.90
70076;DHT22;63241;51.056;3.698;2023-05-07T14:50:05;21.10;99.90
70076;DHT22;63241;51.056;3.698;2023-05-07T14:52:32;21.00;99.90
70076;DHT22;63241;51.056;3.698;2023-05-07T14:55:00;21.00;99.90
70076;DHT22;63241;51.056;3.698;2023-05-07T14:57:28;20.90;99.90
70076;DHT22;63241;51.056;3.698;2023-05-07T14:59:56;21.00;99.90
70076;DHT22;63241;51.056;3.698;2023-05-07T15:02:24;21.00;99.90
70076;DHT22;63241;51.056;3.698;2023-05-07T15:04:51;21.20;99.90
70076;DHT22;63241;51.056;3.698;2023-05-07T15:07:19;21.30;99.90
70076;DHT22;63241;51.056;3.698;2023-05-07T15:09:46;21.50;99.90
70076;DHT22;63241;51.056;3.698;2023-05-07T15:12:14;21.60;99.90
70076;DHT22;63241;51.056;3.698;2023-05-07T15:14:42;21.60;99.90
70076;DHT22;63241;51.056;3.698;2023-05-07T15:17:10;21.80;99.90
70076;DHT22;63241;51.056;3.698;2023-05-07T15:19:37;22.10;99.90
70076;DHT22;63241;51.056;3.698;2023-05-07T15:22:05;22.40;99.90
70076;DHT22;63241;51.056;3.698;2023-05-07T15:24:33;22.80;99.90
70076;DHT22;63241;51.056;3.698;2023-05-07T15:27:00;23.30;99.90
70076;DHT22;63241;51.056;3.698;2023-05-07T15:29:29;23.60;99.90
70076;DHT22;63241;51.056;3.698;2023-05-07T15:31:57;23.80;99.90
70076;DHT22;63241;51.056;3.698;2023-05-07T15:34:25;23.80;99.90
70076;DHT22;63241;51.056;3.698;2023-05-07T15:36:52;23.80;99.90
70076;DHT22;63241;51.056;3.698;2023-05-07T15:39:20;23.60;99.90
70076;DHT22;63241;51.056;3.698;2023-05-07T15:41:48;23.60;99.90
70076;DHT22;63241;51.056;3.698;2023-05-07T15:44:15;23.50;99.90
70076;DHT22;63241;51.056;3.698;2023-05-07T15:46:43;23.50;99.90
70076;DHT22;63241;51.056;3.698;2023-05-07T15:49:10;23.60;99.90
70076;DHT22;63241;51.056;3.698;2023-05-07T15:51:38;23.60;99.90
70076;DHT22;63241;51.056;3.698;2023-05-07T15:54:06;23.70;99.90
70076;DHT22;63241;51.056;3.698;2023-05-07T15:56:33;23.60;99.90
70076;DHT22;63241;51.056;3.698;2023-05-07T15:59:01;23.50;99.90
70076;DHT22;63241;51.056;3.698;2023-05-07T16:01:29;23.40;99.90
70076;DHT22;63241;51.056;3.698;2023-05-07T16:03:58;23.30;99.90
70076;DHT22;63241;51.056;3.698;2023-05-07T16:06:25;23.20;99.90
70076;DHT22;63241;51.056;3.698;2023-05-07T16:08:54;23.10;99.90
70076;DHT22;63241;51.056;3.698;2023-05-07T16:11:21;23.00;99.90
70076;DHT22;63241;51.056;3.698;2023-05-07T16:13:49;22.80;99.90
70076;DHT22;63241;51.056;3.698;2023-05-07T16:16:17;22.80;99.90
70076;DHT22;63241;51.056;3.698;2023-05-07T16:18:44;22.70;99.90
70076;DHT22;63241;51.056;3.698;2023-05-07T16:21:12;22.60;99.90
70076;DHT22;63241;51.056;3.698;2023-05-07T16:23:40;22.50;99.90
70076;DHT22;63241;51.056;3.698;2023-05-07T16:26:07;22.40;99.90
70076;DHT22;63241;51.056;3.698;2023-05-07T16:28:36;22.10;99.90
70076;DHT22;63241;51.056;3.698;2023-05-07T16:31:06;22.00;99.90
70076;DHT22;63241;51.056;3.698;2023-05-07T16:33:34;21.80;99.90
70076;DHT22;63241;51.056;3.698;2023-05-07T16:36:02;21.60;99.90
70076;DHT22;63241;51.056;3.698;2023-05-07T16:38:29;21.50;99.90
70076;DHT22;63241;51.056;3.698;2023-05-07T16:40:59;21.30;99.90
70076;DHT22;63241;51.056;3.698;2023-05-07T16:43:27;21.10;99.90
70076;DHT22;63241;51.056;3.698;2023-05-07T16:45:54;20.90;99.90
70076;DHT22;63241;51.056;3.698;2023-05-07T16:48:22;20.70;99.90
70076;DHT22;63241;51.056;3.698;2023-05-07T16:50:50;20.50;99.90
70076;DHT22;63241;51.056;3.698;2023-05-07T16:53:17;20.30;99.90
70076;DHT22;63241;51.056;3.698;2023-05-07T16:55:46;20.10;99.90
70076;DHT22;63241;51.056;3.698;2023-05-07T16:58:13;19.90;99.90
70076;DHT22;63241;51.056;3.698;2023-05-07T17:00:41;19.80;99.90
70076;DHT22;63241;51.056;3.698;2023-05-07T17:03:09;19.70;99.90
70076;DHT22;63241;51.056;3.698;2023-05-07T17:05:36;19.70;99.90
70076;DHT22;63241;51.056;3.698;2023-05-07T17:08:04;19.60;99.90
70076;DHT22;63241;51.056;3.698;2023-05-07T17:10:32;19.60;99.90
70076;DHT22;63241;51.056;3.698;2023-05-07T17:13:00;19.60;99.90
70076;DHT22;63241;51.056;3.698;2023-05-07T17:15:27;19.60;99.90
70076;DHT22;63241;51.056;3.698;2023-05-07T17:17:55;19.50;99.90
70076;DHT22;63241;51.056;3.698;2023-05-07T17:47:15;19.60;99.90
70076;DHT22;63241;51.056;3.698;2023-05-07T17:49:42;19.60;99.90
70076;DHT22;63241;51.056;3.698;2023-05-07T17:52:10;19.60;99.90
70076;DHT22;63241;51.056;3.698;2023-05-07T17:54:38;19.50;99.90
70076;DHT22;63241;51.056;3.698;2023-05-07T17:57:06;19.40;99.90
70076;DHT22;63241;51.056;3.698;2023-05-07T17:59:33;19.30;99.90
70076;DHT22;63241;51.056;3.698;2023-05-07T18:02:01;19.30;99.90
70076;DHT22;63241;51.056;3.698;2023-05-07T18:04:29;19.30;99.90
70076;DHT22;63241;51.056;3.698;2023-05-07T18:06:57;19.30;99.90
70076;DHT22;63241;51.056;3.698;2023-05-07T18:09:24;19.30;99.90
70076;DHT22;63241;51.056;3.698;2023-05-07T18:11:52;19.30;99.90
70076;DHT22;63241;51.056;3.698;2023-05-07T18:14:20;19.40;99.90
70076;DHT22;63241;51.056;3.698;2023-05-07T18:16:49;19.40;99.90
70076;DHT22;63241;51.056;3.698;2023-05-07T18:19:17;19.50;99.90
70076;DHT22;63241;51.056;3.698;2023-05-07T18:21:45;19.60;99.90
70076;DHT22;63241;51.056;3.698;2023-05-07T18:24:13;19.60;99.90
70076;DHT22;63241;51.056;3.698;2023-05-07T18:26:41;19.60;99.90
70076;DHT22;63241;51.056;3.698;2023-05-07T18:29:09;19.70;99.90
70076;DHT22;63241;51.056;3.698;2023-05-07T18:31:36;19.70;99.90
70076;DHT22;63241;51.056;3.698;2023-05-07T18:34:04;19.70;99.90
70076;DHT22;63241;51.056;3.698;2023-05-07T18:36:32;19.80;99.90
70076;DHT22;63241;51.056;3.698;2023-05-07T18:38:59;19.80;99.90
70076;DHT22;63241;51.056;3.698;2023-05-07T18:41:27;19.80;99.90
70076;DHT22;63241;51.056;3.698;2023-05-07T18:43:55;19.90;99.90
70076;DHT22;63241;51.056;3.698;2023-05-07T18:46:22;19.80;99.90
70076;DHT22;63241;51.056;3.698;2023-05-07T18:48:50;19.80;99.90
70076;DHT22;63241;51.056;3.698;2023-05-07T18:51:18;19.70;99.90
70076;DHT22;63241;51.056;3.698;2023-05-07T18:53:46;19.60;99.90
70076;DHT22;63241;51.056;3.698;2023-05-07T18:56:13;19.50;99.90
70076;DHT22;63241;51.056;3.698;2023-05-07T18:58:41;19.30;99.90
70076;DHT22;63241;51.056;3.698;2023-05-07T19:01:09;19.10;99.90